createdAt,value
2018-12-08T00:00:48.822Z,68.70
2018-12-08T00:03:23.541Z,68.80
2018-12-08T00:05:58.243Z,68.50
2018-12-08T00:08:34.026Z,67.80
2018-12-08T00:11:08.670Z,67.00
2018-12-08T00:13:43.582Z,66.70
2018-12-08T00:16:18.155Z,67.10
2018-12-08T00:18:52.965Z,67.20
2018-12-08T00:21:27.613Z,67.80
2018-12-08T00:24:02.330Z,68.80
2018-12-08T00:26:37.226Z,68.50
2018-12-08T00:29:11.870Z,68.10
2018-12-08T00:31:46.862Z,68.50
2018-12-08T00:34:21.394Z,69.30
2018-12-08T00:36:56.014Z,69.80
2018-12-08T00:39:31.041Z,69.80
2018-12-08T00:42:05.862Z,69.30
2018-12-08T00:44:40.529Z,69.70
2018-12-08T00:47:15.334Z,70.30
2018-12-08T00:49:49.862Z,68.40
2018-12-08T00:52:25.694Z,68.30
2018-12-08T00:55:00.473Z,68.10
2018-12-08T00:57:35.258Z,68.60
2018-12-08T01:00:10.176Z,68.90
2018-12-08T01:02:44.761Z,70.30
2018-12-08T01:05:19.525Z,69.80
2018-12-08T01:07:54.287Z,70.10
2018-12-08T01:10:29.141Z,70.50
2018-12-08T01:13:03.817Z,71.80
2018-12-08T01:15:38.378Z,72.70
2018-12-08T01:18:13.197Z,73.70
2018-12-08T01:20:48.037Z,75.00
2018-12-08T01:23:22.665Z,74.50
2018-12-08T01:25:57.490Z,74.80
2018-12-08T01:28:32.125Z,74.20
2018-12-08T01:31:06.766Z,73.20
2018-12-08T01:33:41.480Z,72.80
2018-12-08T01:36:16.084Z,72.50
2018-12-08T01:38:50.719Z,71.90
2018-12-08T01:41:25.655Z,72.00
2018-12-08T01:44:00.481Z,72.40
2018-12-08T01:46:35.323Z,72.00
2018-12-08T01:49:10.140Z,72.00
2018-12-08T01:51:45.185Z,72.00
2018-12-08T01:54:20.025Z,70.80
2018-12-08T01:56:54.984Z,70.50
2018-12-08T01:59:29.761Z,70.60
2018-12-08T02:02:04.525Z,70.00
2018-12-08T02:04:39.253Z,70.00
2018-12-08T02:07:14.120Z,70.20
2018-12-08T02:09:48.790Z,69.90
2018-12-08T02:12:23.489Z,70.10
2018-12-08T02:14:58.169Z,70.90
2018-12-08T02:17:32.784Z,71.00
2018-12-08T02:20:07.319Z,70.10
2018-12-08T02:22:41.911Z,69.20
2018-12-08T02:25:16.562Z,70.10
2018-12-08T02:27:51.285Z,69.80
2018-12-08T02:30:26.039Z,69.70
2018-12-08T02:33:00.925Z,70.60
2018-12-08T02:35:35.700Z,70.30
2018-12-08T02:38:10.386Z,70.60
2018-12-08T02:40:45.015Z,71.80
2018-12-08T02:43:19.796Z,72.60
2018-12-08T02:45:54.485Z,72.70
2018-12-08T02:48:29.184Z,73.90
2018-12-08T02:51:04.186Z,73.90
2018-12-08T02:53:38.748Z,73.60
2018-12-08T02:56:13.708Z,74.20
2018-12-08T02:58:48.524Z,74.80
2018-12-08T03:01:23.142Z,74.60
2018-12-08T03:03:57.844Z,75.50
2018-12-08T03:06:32.525Z,75.50
2018-12-08T03:09:08.306Z,76.50
2018-12-08T03:11:43.015Z,77.50
2018-12-08T03:14:17.704Z,78.50
2018-12-08T03:16:52.538Z,78.80
2018-12-08T03:19:27.259Z,79.20
2018-12-08T03:22:02.072Z,78.90
2018-12-08T03:24:36.859Z,78.60
2018-12-08T03:27:11.663Z,77.60
2018-12-08T03:29:46.388Z,77.40
2018-12-08T03:32:21.101Z,77.20
2018-12-08T03:34:55.527Z,77.90
2018-12-08T03:37:30.285Z,77.60
2018-12-08T03:40:05.257Z,77.90
2018-12-08T03:42:39.635Z,78.80
2018-12-08T03:45:14.533Z,78.20
2018-12-08T03:47:49.269Z,78.50
2018-12-08T03:50:24.191Z,80.20
2018-12-08T03:52:58.950Z,80.10
2018-12-08T03:55:33.596Z,80.20
2018-12-08T03:58:08.300Z,80.60
2018-12-08T04:00:42.822Z,81.90
2018-12-08T04:03:17.482Z,84.50
2018-12-08T04:05:52.336Z,84.40
2018-12-08T04:08:27.182Z,84.60
2018-12-08T04:11:01.867Z,85.10
2018-12-08T04:13:36.603Z,84.30
2018-12-08T04:16:11.348Z,84.60
2018-12-08T04:18:45.995Z,82.30
2018-12-08T04:21:21.537Z,83.40
2018-12-08T04:23:56.237Z,82.60
2018-12-08T04:26:31.106Z,81.40
2018-12-08T04:29:05.766Z,81.10
2018-12-08T04:31:40.475Z,80.70
2018-12-08T04:34:15.067Z,78.40
2018-12-08T04:36:49.904Z,77.90
2018-12-08T04:39:24.584Z,77.80
2018-12-08T04:41:59.393Z,78.50
2018-12-08T04:44:34.140Z,77.00
2018-12-08T04:47:08.820Z,77.00
2018-12-08T04:49:43.562Z,76.40
2018-12-08T04:52:18.280Z,74.80
2018-12-08T04:54:53.002Z,75.90
2018-12-08T04:57:27.678Z,76.30
2018-12-08T05:00:02.287Z,76.00
2018-12-08T05:02:37.227Z,77.20
2018-12-08T05:05:12.063Z,76.80
2018-12-08T05:07:46.763Z,77.40
2018-12-08T05:10:21.578Z,78.30
2018-12-08T05:12:56.228Z,77.70
2018-12-08T05:15:31.094Z,77.80
2018-12-08T05:18:05.789Z,78.10
2018-12-08T05:20:40.412Z,78.00
2018-12-08T05:23:15.142Z,78.00
2018-12-08T05:25:49.715Z,78.60
2018-12-08T05:28:24.521Z,78.20
2018-12-08T05:30:59.305Z,77.90
2018-12-08T05:33:34.068Z,77.20
2018-12-08T05:36:08.742Z,77.80
2018-12-08T05:38:43.425Z,77.60
2018-12-08T05:41:18.226Z,77.60
2018-12-08T05:43:52.914Z,78.00
2018-12-08T05:46:27.693Z,77.80
2018-12-08T05:49:02.489Z,79.00
2018-12-08T05:51:37.232Z,78.80
2018-12-08T05:54:11.808Z,79.50
2018-12-08T05:56:46.421Z,78.20
2018-12-08T05:59:21.129Z,78.60
2018-12-08T06:01:55.960Z,77.70
2018-12-08T06:04:30.760Z,78.90
2018-12-08T06:07:05.586Z,78.50
2018-12-08T06:09:40.356Z,78.40
2018-12-08T06:12:14.990Z,78.80
2018-12-08T06:14:49.672Z,78.00
2018-12-08T06:17:24.316Z,78.80
2018-12-08T06:19:58.816Z,79.40
2018-12-08T06:22:33.683Z,78.10
2018-12-08T06:25:12.696Z,79.00
2018-12-08T06:27:55.469Z,79.00
2018-12-08T06:30:30.182Z,77.60
2018-12-08T06:33:04.844Z,78.40
2018-12-08T06:35:39.688Z,78.30
2018-12-08T06:38:14.312Z,79.30
2018-12-08T06:40:49.061Z,78.80
2018-12-08T06:43:23.664Z,79.10
2018-12-08T06:45:58.494Z,79.40
2018-12-08T06:48:33.167Z,79.40
2018-12-08T06:51:07.665Z,79.10
2018-12-08T06:53:43.294Z,78.40
2018-12-08T06:56:18.027Z,76.50
2018-12-08T06:58:52.757Z,76.80
2018-12-08T07:01:27.614Z,76.90
2018-12-08T07:04:02.465Z,76.90
2018-12-08T07:06:37.144Z,76.70
2018-12-08T07:09:11.962Z,77.10
2018-12-08T07:11:46.530Z,77.00
2018-12-08T07:14:21.424Z,76.40
2018-12-08T07:16:56.307Z,75.90
2018-12-08T07:19:31.995Z,75.00
2018-12-08T07:22:06.909Z,74.20
2018-12-08T07:24:41.669Z,75.10
2018-12-08T07:27:16.457Z,75.40
2018-12-08T07:29:51.130Z,75.70
2018-12-08T07:32:25.929Z,76.30
2018-12-08T07:35:00.791Z,76.00
2018-12-08T07:37:35.378Z,76.00
2018-12-08T07:40:10.221Z,77.10
2018-12-08T07:42:44.890Z,77.80
2018-12-08T07:45:19.615Z,77.00
2018-12-08T07:47:54.327Z,78.00
2018-12-08T07:50:28.977Z,76.70
2018-12-08T07:53:04.509Z,78.30
2018-12-08T07:55:39.543Z,77.20
2018-12-08T07:58:14.258Z,77.70
2018-12-08T08:00:48.876Z,77.10
2018-12-08T08:03:23.623Z,76.90
2018-12-08T08:05:58.327Z,77.50
2018-12-08T08:08:33.063Z,76.80
2018-12-08T08:11:07.784Z,76.20
2018-12-08T08:13:42.563Z,75.80
2018-12-08T08:16:17.476Z,76.20
2018-12-08T08:18:52.197Z,74.80
2018-12-08T08:21:26.924Z,75.40
2018-12-08T08:24:01.963Z,76.00
2018-12-08T08:26:36.798Z,76.20
2018-12-08T08:29:11.505Z,78.70
2018-12-08T08:31:46.273Z,78.50
2018-12-08T08:34:21.015Z,80.30
2018-12-08T08:36:55.793Z,80.50
2018-12-08T08:39:30.588Z,82.40
2018-12-08T08:42:05.399Z,82.20
2018-12-08T08:44:40.187Z,82.80
2018-12-08T08:47:15.187Z,83.40
2018-12-08T08:49:49.926Z,84.70
2018-12-08T08:55:05.929Z,84.80
2018-12-08T08:57:41.311Z,85.90
2018-12-08T09:00:16.248Z,84.20
2018-12-08T09:02:51.087Z,83.70
2018-12-08T09:05:25.721Z,83.50
2018-12-08T09:08:00.297Z,85.00
2018-12-08T09:10:35.042Z,82.10
2018-12-08T09:13:09.758Z,81.60
2018-12-08T09:15:44.490Z,80.70
2018-12-08T09:18:19.184Z,80.00
2018-12-08T09:20:53.842Z,78.70
2018-12-08T09:23:28.468Z,77.80
2018-12-08T09:26:03.205Z,78.20
2018-12-08T09:28:37.922Z,78.20
2018-12-08T09:31:12.561Z,78.40
2018-12-08T09:33:47.272Z,77.00
2018-12-08T09:36:21.875Z,77.30
2018-12-08T09:38:56.557Z,78.50
2018-12-08T09:41:31.244Z,79.00
2018-12-08T09:44:05.805Z,78.90
2018-12-08T09:46:40.609Z,79.50
2018-12-08T09:49:15.341Z,79.50
2018-12-08T09:51:49.948Z,81.80
2018-12-08T09:54:24.753Z,83.10
2018-12-08T09:56:59.515Z,83.70
2018-12-08T09:59:34.297Z,84.80
2018-12-08T10:02:09.996Z,86.00
2018-12-08T10:04:44.865Z,86.90
2018-12-08T10:07:19.562Z,86.70
2018-12-08T10:09:54.304Z,87.10
2018-12-08T10:12:29.021Z,86.50
2018-12-08T10:15:03.794Z,87.90
2018-12-08T10:17:38.435Z,87.40
2018-12-08T10:20:13.190Z,88.60
2018-12-08T10:22:47.783Z,88.80
2018-12-08T10:25:22.600Z,89.10
2018-12-08T10:27:57.501Z,89.50
2018-12-08T10:30:32.200Z,90.90
2018-12-08T10:33:06.749Z,89.90
2018-12-08T10:35:41.417Z,90.70
2018-12-08T10:38:16.999Z,91.20
2018-12-08T10:40:51.701Z,92.10
2018-12-08T10:43:26.417Z,92.50
2018-12-08T10:46:01.128Z,92.70
2018-12-08T10:48:35.976Z,90.60
2018-12-08T10:51:10.665Z,90.30
2018-12-08T10:53:46.375Z,89.20
2018-12-08T10:56:21.198Z,89.80
2018-12-08T10:58:55.899Z,90.80
2018-12-08T11:04:16.670Z,91.50
2018-12-08T11:06:51.694Z,89.10
2018-12-08T11:09:26.458Z,87.00
2018-12-08T11:12:01.089Z,88.20
2018-12-08T11:14:36.110Z,88.20
2018-12-08T11:17:10.959Z,86.50
2018-12-08T11:19:45.708Z,85.40
2018-12-08T11:22:20.662Z,84.70
2018-12-08T11:24:55.256Z,81.30
2018-12-08T11:27:30.077Z,80.50
2018-12-08T11:30:05.779Z,78.70
2018-12-08T11:32:40.771Z,79.00
2018-12-08T11:35:15.599Z,77.70
2018-12-08T11:37:50.436Z,77.30
2018-12-08T11:40:25.181Z,77.10
2018-12-08T11:42:59.739Z,76.10
2018-12-08T11:45:34.474Z,77.20
2018-12-08T11:48:09.067Z,78.10
2018-12-08T11:50:43.651Z,78.50
2018-12-08T11:53:18.476Z,78.40
2018-12-08T11:55:53.380Z,79.30
2018-12-08T11:58:28.085Z,78.70
2018-12-08T12:01:02.768Z,79.10
2018-12-08T12:03:37.518Z,77.70
2018-12-08T12:06:12.263Z,76.20
2018-12-08T12:08:47.030Z,76.00
2018-12-08T12:11:21.830Z,75.10
2018-12-08T12:13:56.444Z,75.90
2018-12-08T12:16:31.345Z,75.60
2018-12-08T12:19:06.052Z,76.80
2018-12-08T12:21:40.726Z,76.60
2018-12-08T12:24:15.705Z,76.10
2018-12-08T12:26:50.339Z,76.40
2018-12-08T12:29:25.189Z,76.70
2018-12-08T12:31:59.899Z,77.00
2018-12-08T12:34:34.663Z,76.40
2018-12-08T12:37:09.393Z,76.20
2018-12-08T12:39:43.883Z,75.20
2018-12-08T12:42:18.603Z,74.40
2018-12-08T12:44:53.314Z,74.20
2018-12-08T12:47:28.197Z,74.00
2018-12-08T12:50:03.763Z,74.60
2018-12-08T12:52:38.558Z,74.40
2018-12-08T12:55:13.367Z,73.40
2018-12-08T12:57:48.011Z,74.00
2018-12-08T13:00:22.684Z,72.80
2018-12-08T13:02:57.303Z,72.90
2018-12-08T13:05:31.855Z,72.10
2018-12-08T13:08:06.606Z,70.70
2018-12-08T13:10:41.177Z,70.20
2018-12-08T13:13:16.005Z,71.40
2018-12-08T13:15:50.801Z,72.80
2018-12-08T13:18:25.433Z,73.60
2018-12-08T13:21:00.149Z,74.40
2018-12-08T13:23:34.898Z,74.70
2018-12-08T13:26:09.680Z,75.30
2018-12-08T13:28:44.254Z,75.10
2018-12-08T13:31:19.058Z,75.20
2018-12-08T13:33:53.728Z,74.80
2018-12-08T13:36:28.206Z,75.40
2018-12-08T13:39:02.824Z,75.60
2018-12-08T13:41:37.573Z,74.80
2018-12-08T13:44:33.597Z,74.70
2018-12-08T13:47:08.644Z,73.60
2018-12-08T13:49:43.320Z,73.50
2018-12-08T13:52:17.917Z,73.90
2018-12-08T13:54:52.489Z,73.60
2018-12-08T13:57:27.233Z,73.10
2018-12-08T14:00:02.114Z,72.90
2018-12-08T14:02:36.877Z,73.10
2018-12-08T14:05:11.686Z,73.10
2018-12-08T14:07:46.449Z,73.20
2018-12-08T14:10:21.336Z,72.90
2018-12-08T14:12:56.110Z,72.70
2018-12-08T14:15:30.856Z,72.30
2018-12-08T14:18:05.497Z,71.70
2018-12-08T14:20:40.194Z,72.00
2018-12-08T14:23:14.764Z,71.90
2018-12-08T14:25:50.217Z,72.10
2018-12-08T14:28:25.092Z,72.70
2018-12-08T14:30:59.669Z,73.90
2018-12-08T14:33:34.431Z,75.70
2018-12-08T14:36:09.147Z,76.40
2018-12-08T14:38:43.729Z,77.00
2018-12-08T14:41:18.496Z,77.20
2018-12-08T14:43:53.170Z,77.40
2018-12-08T14:46:27.871Z,76.90
2018-12-08T14:49:02.534Z,77.90
2018-12-08T14:51:37.104Z,79.90
2018-12-08T14:54:11.878Z,82.00
2018-12-08T14:56:46.521Z,83.10
2018-12-08T14:59:21.268Z,83.30
2018-12-08T15:01:55.980Z,84.50
2018-12-08T15:04:30.445Z,84.90
2018-12-08T15:07:05.045Z,85.40
2018-12-08T15:09:39.711Z,83.40
2018-12-08T15:12:14.669Z,82.70
2018-12-08T15:14:49.227Z,81.70
2018-12-08T15:17:23.830Z,81.10
2018-12-08T15:19:58.601Z,81.60
2018-12-08T15:22:33.184Z,81.80
2018-12-08T15:25:08.018Z,82.20
2018-12-08T15:27:42.681Z,81.60
2018-12-08T15:30:17.364Z,81.70
2018-12-08T15:32:51.971Z,81.80
2018-12-08T15:35:26.675Z,81.30
2018-12-08T15:38:01.247Z,81.10
2018-12-08T15:40:36.197Z,80.30
2018-12-08T15:43:10.875Z,80.10
2018-12-08T15:45:45.491Z,78.90
2018-12-08T15:48:20.476Z,78.20
2018-12-08T15:50:55.160Z,78.00
2018-12-08T15:53:29.890Z,79.10
2018-12-08T15:56:04.670Z,79.80
2018-12-08T15:58:39.364Z,80.00
2018-12-08T16:01:13.917Z,79.90
2018-12-08T16:03:48.693Z,81.00
2018-12-08T16:06:23.428Z,80.70
2018-12-08T16:08:58.013Z,82.20
2018-12-08T16:11:32.809Z,83.10
2018-12-08T16:14:07.605Z,85.50
2018-12-08T16:16:42.292Z,88.40
2018-12-08T16:19:16.845Z,91.80
2018-12-08T16:21:51.562Z,93.30
2018-12-08T16:24:26.320Z,94.40
2018-12-08T16:27:01.137Z,94.10
2018-12-08T16:29:35.895Z,94.00
2018-12-08T16:32:10.480Z,93.60
2018-12-08T16:34:45.119Z,91.80
2018-12-08T16:37:19.765Z,91.50
2018-12-08T16:39:54.589Z,91.00
2018-12-08T16:42:29.234Z,89.80
2018-12-08T16:45:04.985Z,87.80
2018-12-08T16:47:39.768Z,88.00
2018-12-08T16:50:14.534Z,87.30
2018-12-08T16:52:49.124Z,86.60
2018-12-08T16:55:23.667Z,89.30
2018-12-08T16:57:58.378Z,87.40
2018-12-08T17:00:33.300Z,88.40
2018-12-08T17:03:08.053Z,89.90
2018-12-08T17:05:42.924Z,89.80
2018-12-08T17:08:17.501Z,89.60
2018-12-08T17:10:52.235Z,90.10
2018-12-08T17:13:26.841Z,89.40
2018-12-08T17:16:01.425Z,89.60
2018-12-08T17:18:35.994Z,89.50
2018-12-08T17:21:10.657Z,89.20
2018-12-08T17:23:45.141Z,90.10
2018-12-08T17:26:19.917Z,90.30
2018-12-08T17:28:54.611Z,90.10
2018-12-08T17:31:29.661Z,90.40
2018-12-08T17:34:04.331Z,91.30
2018-12-08T17:36:39.185Z,92.10
2018-12-08T17:39:14.128Z,89.60
2018-12-08T17:41:48.771Z,89.10
2018-12-08T17:44:23.590Z,89.30
2018-12-08T17:46:58.536Z,90.10
2018-12-08T17:49:33.449Z,91.00
2018-12-08T17:52:08.090Z,91.90
2018-12-08T17:54:42.857Z,92.10
2018-12-08T17:57:17.596Z,93.40
2018-12-08T17:59:52.235Z,94.10
2018-12-08T18:02:27.075Z,90.80
2018-12-08T18:05:01.745Z,92.10
2018-12-08T18:07:36.376Z,90.40
2018-12-08T18:10:11.111Z,90.30
2018-12-08T18:12:45.926Z,88.70
2018-12-08T18:15:20.553Z,87.50
2018-12-08T18:17:55.292Z,86.90
2018-12-08T18:20:30.207Z,86.40
2018-12-08T18:23:04.923Z,84.90
2018-12-08T18:25:39.796Z,84.60
2018-12-08T18:28:14.838Z,83.80
2018-12-08T18:30:49.290Z,82.20
2018-12-08T18:33:23.949Z,81.50
2018-12-08T18:35:59.608Z,81.30
2018-12-08T18:38:35.192Z,80.40
2018-12-08T18:41:10.055Z,80.20
2018-12-08T18:43:44.800Z,80.50
2018-12-08T18:46:19.544Z,80.80
2018-12-08T18:48:56.166Z,80.40
2018-12-08T18:51:31.074Z,80.40
2018-12-08T18:54:05.871Z,82.00
2018-12-08T18:56:40.795Z,82.60
2018-12-08T18:59:15.527Z,84.30
2018-12-08T19:01:50.170Z,87.40
2018-12-08T19:04:24.864Z,88.00
2018-12-08T19:06:59.566Z,89.30
2018-12-08T19:09:34.314Z,89.80
2018-12-08T19:12:09.112Z,90.80
2018-12-08T19:14:43.778Z,91.50
2018-12-08T19:17:18.463Z,92.40
2018-12-08T19:19:53.279Z,93.90
2018-12-08T19:22:28.141Z,95.00
2018-12-08T19:25:02.850Z,96.60
2018-12-08T19:27:37.553Z,99.90
2018-12-08T19:30:12.306Z,99.90
2018-12-08T19:32:46.907Z,99.90
2018-12-08T19:35:21.547Z,99.90
2018-12-08T19:37:56.251Z,99.90
2018-12-08T19:40:30.955Z,99.90
2018-12-08T19:43:05.689Z,99.90
2018-12-08T19:45:40.423Z,99.90
2018-12-08T19:48:15.197Z,99.90
2018-12-08T19:50:49.938Z,99.90
2018-12-08T19:53:24.739Z,99.90
2018-12-08T19:55:59.596Z,99.90
2018-12-08T19:58:34.381Z,99.90
2018-12-08T20:01:09.000Z,99.90
2018-12-08T20:03:44.860Z,99.90
2018-12-08T20:06:19.557Z,99.90
2018-12-08T20:08:54.319Z,99.90
2018-12-08T20:11:30.207Z,99.90
2018-12-08T20:14:05.167Z,99.90
2018-12-08T20:16:39.844Z,99.90
2018-12-08T20:19:14.800Z,99.90
2018-12-08T20:21:49.577Z,99.90
2018-12-08T20:24:24.571Z,99.90
2018-12-08T20:27:01.268Z,99.90
2018-12-08T20:29:35.932Z,99.90
2018-12-08T20:32:10.700Z,99.90
2018-12-08T20:34:45.402Z,99.90
2018-12-08T20:37:19.981Z,99.90
2018-12-08T20:39:54.672Z,99.90
2018-12-08T20:42:29.340Z,99.90
2018-12-08T20:45:04.699Z,99.90
2018-12-08T20:47:39.736Z,99.90
2018-12-08T20:50:14.569Z,99.90
2018-12-08T20:52:49.264Z,99.90
2018-12-08T20:58:08.357Z,99.90
2018-12-08T21:00:43.288Z,99.90
2018-12-08T21:03:18.015Z,99.90
2018-12-08T21:05:52.918Z,99.90
2018-12-08T21:08:27.611Z,99.90
2018-12-08T21:11:02.384Z,99.90
2018-12-08T21:13:36.979Z,99.90
2018-12-08T21:16:11.613Z,99.90
2018-12-08T21:18:46.389Z,99.90
2018-12-08T21:21:21.233Z,99.90
2018-12-08T21:23:57.024Z,99.90
2018-12-08T21:26:31.768Z,99.90
2018-12-08T21:29:06.606Z,99.90
2018-12-08T21:34:16.098Z,99.90
2018-12-08T21:36:50.522Z,99.90
2018-12-08T21:39:25.326Z,99.90
2018-12-08T21:42:00.171Z,99.90
2018-12-08T21:44:34.816Z,99.90
2018-12-08T21:47:09.594Z,99.90
2018-12-08T21:49:44.417Z,99.90
2018-12-08T21:52:19.204Z,99.90
2018-12-08T21:54:54.030Z,99.90
2018-12-08T21:57:28.804Z,99.90
2018-12-08T22:00:03.949Z,99.90
2018-12-08T22:02:39.144Z,99.90
2018-12-08T22:05:14.051Z,99.90
2018-12-08T22:07:48.668Z,99.90
2018-12-08T22:10:24.305Z,99.90
2018-12-08T22:12:59.050Z,99.90
2018-12-08T22:15:33.985Z,99.90
2018-12-08T22:18:08.475Z,99.90
2018-12-08T22:20:43.202Z,99.90
2018-12-08T22:23:17.981Z,99.90
2018-12-08T22:25:53.156Z,99.90
2018-12-08T22:28:27.540Z,99.90
2018-12-08T22:31:02.220Z,99.90
2018-12-08T22:33:36.877Z,99.90
2018-12-08T22:36:13.977Z,99.90
2018-12-08T22:38:50.230Z,99.90
2018-12-08T22:41:24.852Z,99.90
2018-12-08T22:43:59.663Z,99.90
2018-12-08T22:46:34.357Z,99.90
2018-12-08T22:49:09.156Z,99.90
2018-12-08T22:51:43.881Z,99.90
2018-12-08T22:54:18.547Z,99.90
2018-12-08T22:56:53.274Z,99.90
2018-12-08T22:59:28.033Z,99.90
2018-12-08T23:02:02.705Z,99.90
2018-12-08T23:04:37.461Z,99.90
2018-12-08T23:07:12.044Z,99.90
2018-12-08T23:09:46.828Z,99.90
2018-12-08T23:12:21.494Z,99.90
2018-12-08T23:14:56.259Z,99.90
2018-12-08T23:17:30.991Z,99.90
2018-12-08T23:20:06.021Z,99.90
2018-12-08T23:22:41.188Z,99.90
2018-12-08T23:25:16.061Z,99.90
2018-12-08T23:27:50.755Z,99.90
2018-12-08T23:30:25.588Z,99.90
2018-12-08T23:33:00.197Z,99.90
2018-12-08T23:35:34.938Z,99.90
2018-12-08T23:38:09.583Z,99.90
2018-12-08T23:40:44.297Z,99.90
2018-12-08T23:43:19.041Z,99.90
2018-12-08T23:45:53.894Z,99.90
2018-12-08T23:48:28.589Z,99.90
2018-12-08T23:51:03.379Z,99.90
2018-12-08T23:53:38.015Z,99.90
2018-12-08T23:56:12.788Z,99.90
2018-12-08T23:58:47.593Z,99.90
